createdAt,value
2022-10-01T00:01:46.752Z,96863.56
2022-10-01T00:04:35.008Z,96866.41
2022-10-01T00:07:22.578Z,96862.31
2022-10-01T00:10:10.971Z,96861.31
2022-10-01T00:12:58.865Z,96861.47
2022-10-01T00:15:45.502Z,96859.22
2022-10-01T00:18:32.899Z,96863.69
2022-10-01T00:21:20.565Z,96857.78
2022-10-01T06:24:36.275Z,96779.38
2022-10-01T06:27:22.950Z,96787.34
2022-10-01T06:30:10.278Z,96782.03
2022-10-01T06:33:04.087Z,96781.19
2022-10-01T06:35:51.285Z,96776.72
2022-10-01T06:38:37.931Z,96781.84
2022-10-01T06:41:25.028Z,96782.84
2022-10-01T06:44:11.733Z,96784.69
2022-10-01T06:46:58.436Z,96769.75
2022-10-01T06:49:47.637Z,96776.72
2022-10-01T06:52:49.938Z,96774.09
2022-10-01T06:55:36.771Z,96774.09
2022-10-01T06:58:26.217Z,96766.28
2022-10-01T07:01:13.133Z,96768.94
2022-10-01T07:03:59.912Z,96775.88
2022-10-01T07:06:46.553Z,96767.94
2022-10-01T07:09:33.209Z,96768.78
2022-10-01T07:12:20.482Z,96761.66
2022-10-01T07:15:08.034Z,96770.41
2022-10-01T07:17:54.672Z,96762.47
2022-10-01T07:20:41.473Z,96762.25
2022-10-01T07:23:28.131Z,96763.75
2022-10-01T07:26:15.065Z,96760.88
2022-10-01T07:29:01.794Z,96757.88
2022-10-01T07:31:48.671Z,96752.56
2022-10-01T07:34:36.082Z,96754.22
2022-10-01T07:37:22.976Z,96762.00
2022-10-01T07:40:09.730Z,96765.09
2022-10-01T07:42:56.485Z,96767.75
2022-10-01T07:45:44.306Z,96760.41
2022-10-01T07:48:31.073Z,96754.13
2022-10-01T07:51:17.734Z,96755.75
2022-10-01T07:54:04.642Z,96762.53
2022-10-01T07:56:55.677Z,96758.06
2022-10-01T07:59:42.781Z,96755.03
2022-10-01T08:02:29.481Z,96753.00
2022-10-01T08:05:20.290Z,96755.28
2022-10-01T08:08:07.413Z,96746.97
2022-10-01T08:10:54.053Z,96749.25
2022-10-01T08:13:40.841Z,96742.75
2022-10-01T08:16:29.106Z,96742.56
2022-10-01T08:19:15.864Z,96745.47
2022-10-01T08:22:02.987Z,96741.41
2022-10-01T08:24:49.644Z,96725.94
2022-10-01T08:27:36.389Z,96724.19
2022-10-01T08:30:23.107Z,96724.91
2022-10-01T08:33:10.621Z,96720.66
2022-10-01T08:35:57.270Z,96725.22
2022-10-01T08:38:47.154Z,96722.81
2022-10-01T08:41:40.139Z,96723.25
2022-10-01T08:44:28.919Z,96735.97
2022-10-01T08:47:31.714Z,96731.94
2022-10-01T08:50:27.706Z,96735.03
2022-10-01T08:53:16.041Z,96732.81
2022-10-01T08:56:02.913Z,96722.63
2022-10-01T08:58:51.133Z,96725.72
2022-10-01T09:01:38.229Z,96734.13
2022-10-01T09:04:25.815Z,96735.56
2022-10-01T09:07:23.449Z,96738.03
2022-10-01T09:10:10.115Z,96750.13
2022-10-01T09:12:59.817Z,96743.59
2022-10-01T09:15:46.433Z,96740.75
2022-10-01T09:18:33.062Z,96742.19
2022-10-01T09:21:23.196Z,96753.47
2022-10-01T09:24:15.152Z,96742.63
2022-10-01T09:27:02.711Z,96744.09
2022-10-01T09:29:50.856Z,96744.72
2022-10-01T09:32:45.860Z,96751.47
2022-10-01T09:35:32.831Z,96758.25
2022-10-01T09:38:36.789Z,96756.22
2022-10-01T09:41:23.429Z,96746.84
2022-10-01T09:44:16.771Z,96748.28
2022-10-01T09:47:13.983Z,96740.94
2022-10-01T09:50:00.621Z,96738.75
2022-10-01T09:52:48.750Z,96734.09
2022-10-01T09:55:42.864Z,96722.59
2022-10-01T09:58:29.504Z,96728.75
2022-10-01T10:01:22.026Z,96730.41
2022-10-01T10:04:08.951Z,96732.84
2022-10-01T10:07:03.769Z,96723.88
2022-10-01T10:09:50.522Z,96729.00
2022-10-01T10:12:37.238Z,96716.53
2022-10-01T10:15:26.258Z,96711.19
2022-10-01T10:18:19.280Z,96706.53
2022-10-01T10:21:15.072Z,96702.63
2022-10-01T10:24:05.033Z,96694.66
2022-10-01T10:26:55.932Z,96697.94
2022-10-01T10:29:42.617Z,96689.16
2022-10-01T10:32:29.312Z,96684.44
2022-10-01T10:35:17.469Z,96685.31
2022-10-01T10:38:04.124Z,96689.78
2022-10-01T10:40:51.091Z,96693.88
2022-10-01T10:43:37.807Z,96676.09
2022-10-01T10:46:29.294Z,96674.25
2022-10-01T10:49:23.596Z,96666.28
2022-10-01T10:52:19.835Z,96663.44
2022-10-01T10:55:20.572Z,96664.25
2022-10-01T10:58:26.068Z,96662.41
2022-10-01T11:01:13.556Z,96652.41
2022-10-01T11:04:00.469Z,96647.09
2022-10-01T11:06:57.401Z,96646.25
2022-10-01T11:09:47.753Z,96646.06
2022-10-01T11:12:43.937Z,96645.84
2022-10-01T11:15:57.155Z,96634.22
2022-10-01T11:18:43.812Z,96641.16
2022-10-01T11:21:41.694Z,96635.84
2022-10-01T11:24:48.592Z,96627.88
2022-10-01T11:27:54.473Z,96627.66
2022-10-01T11:31:01.423Z,96626.66
2022-10-01T11:34:07.596Z,96619.50
2022-10-01T11:36:57.115Z,96616.84
2022-10-01T11:39:43.777Z,96607.84
2022-10-01T11:42:34.757Z,96611.53
2022-10-01T11:45:22.500Z,96610.50
2022-10-01T11:48:12.552Z,96619.28
2022-10-01T11:51:03.417Z,96607.84
2022-10-01T11:53:51.681Z,96607.63
2022-10-01T11:56:59.560Z,96598.84
2022-10-01T11:59:46.765Z,96601.31
2022-10-01T12:02:35.793Z,96589.84
2022-10-01T12:05:26.113Z,96583.50
2022-10-01T12:08:24.175Z,96587.00
2022-10-01T12:11:16.117Z,96588.63
2022-10-01T12:14:10.854Z,96593.75
2022-10-01T12:17:12.166Z,96597.41
2022-10-01T12:19:59.690Z,96607.88
2022-10-01T12:22:46.347Z,96609.50
2022-10-01T12:25:52.323Z,96615.63
2022-10-01T12:28:59.329Z,96620.78
2022-10-01T12:31:56.257Z,96625.28
2022-10-01T12:34:53.295Z,96626.91
2022-10-01T12:37:56.275Z,96632.00
2022-10-01T12:40:45.897Z,96627.31
2022-10-01T12:43:35.286Z,96618.53
2022-10-01T12:46:33.751Z,96631.63
2022-10-01T12:49:29.889Z,96624.47
2022-10-01T12:52:25.493Z,96617.28
2022-10-01T12:55:17.814Z,96627.75
2022-10-01T12:58:07.530Z,96630.41
2022-10-01T13:01:03.425Z,96645.97
2022-10-01T13:03:50.107Z,96639.84
2022-10-01T13:07:12.383Z,96633.50
2022-10-01T13:10:17.771Z,96635.94
2022-10-01T13:13:08.174Z,96635.75
2022-10-01T13:16:13.680Z,96630.44
2022-10-01T13:19:03.357Z,96622.03
2022-10-01T13:22:09.066Z,96627.16
2022-10-01T13:25:00.753Z,96630.44
2022-10-01T13:27:51.657Z,96638.00
2022-10-01T13:30:45.180Z,96627.38
2022-10-01T13:33:32.296Z,96628.00
2022-10-01T13:36:27.837Z,96624.31
2022-10-01T13:39:21.856Z,96625.94
2022-10-01T13:42:28.796Z,96625.75
2022-10-01T13:45:37.188Z,96630.06
2022-10-01T13:48:23.817Z,96632.53
2022-10-01T13:51:13.641Z,96634.97
2022-10-01T13:54:00.651Z,96634.97
2022-10-01T13:56:47.426Z,96623.94
2022-10-01T13:59:37.158Z,96622.91
2022-10-01T14:02:30.310Z,96626.19
2022-10-01T14:05:17.033Z,96629.47
2022-10-01T14:08:21.399Z,96629.28
2022-10-01T14:11:50.038Z,96617.38
2022-10-01T14:15:02.312Z,96626.81
2022-10-01T14:17:50.321Z,96625.38
2022-10-01T14:20:45.657Z,96621.28
2022-10-01T14:23:36.773Z,96632.56
2022-10-01T14:26:42.221Z,96630.31
2022-10-01T14:30:01.587Z,96632.78
2022-10-01T14:33:14.570Z,96635.25
2022-10-01T14:36:07.020Z,96643.03
2022-10-01T14:39:05.285Z,96631.34
2022-10-01T14:41:54.824Z,96636.66
2022-10-01T14:44:42.350Z,96626.84
2022-10-01T14:47:35.599Z,96629.31
2022-10-01T14:50:24.725Z,96620.28
2022-10-01T14:53:21.916Z,96621.09
2022-10-01T14:56:12.002Z,96617.44
2022-10-01T14:59:01.816Z,96620.91
2022-10-01T15:01:57.326Z,96619.06
2022-10-01T15:04:47.710Z,96622.34
2022-10-01T15:07:35.690Z,96626.84
2022-10-01T15:10:25.893Z,96628.69
2022-10-01T15:13:19.925Z,96625.84
2022-10-01T15:16:16.729Z,96624.00
2022-10-01T15:19:10.264Z,96625.63
2022-10-01T15:21:59.929Z,96626.44
2022-10-01T15:24:47.025Z,96624.59
2022-10-01T15:27:33.680Z,96629.91
2022-10-01T15:30:20.666Z,96621.91
2022-10-01T15:33:09.999Z,96637.72
2022-10-01T15:36:05.065Z,96633.38
2022-10-01T15:38:51.839Z,96635.06
2022-10-01T15:41:42.228Z,96641.19
2022-10-01T15:44:46.459Z,96634.25
2022-10-01T15:47:34.087Z,96638.53
2022-10-01T15:50:25.202Z,96642.00
2022-10-01T15:53:16.531Z,96641.38
2022-10-01T15:56:15.864Z,96641.19
2022-10-01T15:59:04.140Z,96645.50
2022-10-01T16:01:50.906Z,96650.81
2022-10-01T16:04:41.130Z,96652.44
2022-10-01T16:07:28.701Z,96654.91
2022-10-01T16:10:21.979Z,96658.41
2022-10-01T16:13:45.885Z,96654.09
2022-10-01T16:16:32.923Z,96653.88
2022-10-01T16:19:30.369Z,96650.19
2022-10-01T16:22:17.151Z,96660.84
2022-10-01T16:25:13.035Z,96667.03
2022-10-01T16:28:04.373Z,96680.13
2022-10-01T16:30:51.403Z,96679.31
2022-10-01T16:33:38.148Z,96682.56
2022-10-01T16:36:28.003Z,96684.41
2022-10-01T16:39:15.414Z,96689.56
2022-10-01T16:42:22.973Z,96687.91
2022-10-01T16:45:21.403Z,96689.56
2022-10-01T16:48:19.525Z,96697.56
2022-10-01T16:51:06.293Z,96707.38
2022-10-01T16:53:54.483Z,96701.22
2022-10-01T16:56:41.374Z,96704.91
2022-10-01T16:59:28.049Z,96711.88
2022-10-01T17:02:14.943Z,96716.38
2022-10-01T17:05:01.804Z,96708.59
2022-10-01T17:07:48.994Z,96720.28
2022-10-01T17:10:35.929Z,96714.97
2022-10-01T17:13:22.613Z,96720.28
2022-10-01T17:16:09.363Z,96708.78
2022-10-01T17:18:56.626Z,96723.13
2022-10-01T17:21:43.423Z,96723.94
2022-10-01T17:24:31.003Z,96720.47
2022-10-01T17:27:17.655Z,96728.47
2022-10-01T17:30:07.362Z,96728.47
2022-10-01T17:32:57.085Z,96740.16
2022-10-01T17:35:44.747Z,96742.81
2022-10-01T17:38:31.452Z,96746.50
2022-10-01T17:41:20.711Z,96746.50
2022-10-01T17:44:18.236Z,96752.84
2022-10-01T17:47:04.929Z,96756.31
2022-10-01T17:49:51.613Z,96764.31
2022-10-01T17:52:38.265Z,96769.84
2022-10-01T17:55:31.154Z,96767.81
2022-10-01T17:58:19.660Z,96774.13
2022-10-01T18:01:12.990Z,96775.16
2022-10-01T18:04:00.701Z,96778.66
2022-10-01T18:06:59.792Z,96786.63
2022-10-01T18:09:46.746Z,96789.31
2022-10-01T18:12:33.943Z,96783.16
2022-10-01T18:15:27.153Z,96800.97
2022-10-01T18:21:28.434Z,96806.31
2022-10-01T18:26:42.379Z,96800.97
2022-10-01T18:29:29.137Z,96798.31
2022-10-01T18:32:15.748Z,96798.31
2022-10-01T18:35:02.722Z,96802.63
2022-10-01T18:37:50.366Z,96803.44
2022-10-01T18:40:40.260Z,96798.94
2022-10-01T18:43:29.407Z,96806.09
2022-10-01T18:46:35.864Z,96810.44
2022-10-01T18:49:42.426Z,96807.75
2022-10-01T18:52:38.191Z,96813.28
2022-10-01T18:55:30.950Z,96824.75
2022-10-01T18:58:20.630Z,96818.59
2022-10-01T19:01:11.505Z,96822.91
2022-10-01T19:04:01.243Z,96827.41
2022-10-01T19:06:54.717Z,96819.41
2022-10-01T19:09:52.036Z,96837.25
2022-10-01T19:12:57.486Z,96831.91
2022-10-01T19:15:44.505Z,96839.09
2022-10-01T19:18:38.213Z,96839.09
2022-10-01T19:21:24.926Z,96834.78
2022-10-01T19:24:30.391Z,96846.44
2022-10-01T19:27:23.390Z,96852.41
2022-10-01T19:30:10.154Z,96858.53
2022-10-01T19:33:00.318Z,96852.41
2022-10-01T19:35:48.862Z,96866.75
2022-10-01T19:38:37.105Z,96876.38
2022-10-01T19:41:36.246Z,96871.88
2022-10-01T19:44:28.637Z,96881.69
2022-10-01T19:47:23.421Z,96888.88
2022-10-01T19:50:19.853Z,96897.69
2022-10-01T19:53:06.563Z,96901.97
2022-10-01T19:55:53.290Z,96911.63
2022-10-01T19:58:39.931Z,96913.66
2022-10-01T20:01:30.142Z,96925.34
2022-10-01T20:04:22.971Z,96921.00
2022-10-01T20:07:14.931Z,96930.84
2022-10-01T20:10:05.830Z,96928.00
2022-10-01T20:13:11.723Z,96934.16
2022-10-01T20:16:01.230Z,96946.66
2022-10-01T20:18:57.150Z,96952.97
2022-10-01T20:21:43.816Z,96956.47
2022-10-01T20:24:36.512Z,96960.97
2022-10-01T20:27:23.119Z,96967.13
2022-10-01T20:30:20.142Z,96972.63
2022-10-01T20:33:08.915Z,96974.28
2022-10-01T20:36:01.674Z,96983.28
2022-10-01T20:38:49.884Z,96987.59
2022-10-01T20:41:42.518Z,96987.59
2022-10-01T20:44:31.994Z,96990.25
2022-10-01T20:47:30.620Z,97004.44
2022-10-01T20:50:36.030Z,97014.22
2022-10-01T20:53:44.223Z,97031.06
2022-10-01T20:56:38.821Z,97058.50
2022-10-01T20:59:41.543Z,97063.03
2022-10-01T21:02:39.951Z,97060.34
2022-10-01T21:05:32.732Z,97059.50
2022-10-01T21:08:22.425Z,97060.53
2022-10-01T21:11:21.727Z,97058.88
2022-10-01T21:14:16.625Z,97065.84
2022-10-01T21:17:13.356Z,97073.03
2022-10-01T21:20:00.004Z,97071.38
2022-10-01T21:22:52.652Z,97072.41
2022-10-01T21:25:42.245Z,97065.41
2022-10-01T21:28:39.794Z,97070.94
2022-10-01T21:31:40.673Z,97070.94
2022-10-01T21:34:36.434Z,97076.28
2022-10-01T21:37:25.327Z,97085.28
2022-10-01T21:40:17.911Z,97085.47
2022-10-01T21:43:16.764Z,97088.13
2022-10-01T21:46:09.042Z,97063.34
2022-10-01T21:49:14.232Z,97085.69
2022-10-01T21:52:10.817Z,97080.34
2022-10-01T21:55:03.701Z,97083.19
2022-10-01T21:58:01.401Z,97096.31
2022-10-01T22:00:52.473Z,97120.47
2022-10-01T22:03:41.755Z,97121.50
2022-10-01T22:06:32.952Z,97117.19
2022-10-01T22:09:30.314Z,97111.88
2022-10-01T22:12:16.981Z,97117.19
2022-10-01T22:15:04.546Z,97141.97
2022-10-01T22:17:51.491Z,97145.66
2022-10-01T22:20:38.799Z,97152.81
2022-10-01T22:23:25.453Z,97158.13
2022-10-01T22:26:13.880Z,97158.13
2022-10-01T22:29:01.871Z,97157.31
2022-10-01T22:31:49.733Z,97161.81
2022-10-01T22:34:41.229Z,97157.31
2022-10-01T22:37:29.000Z,97165.28
2022-10-01T22:40:18.190Z,97168.97
2022-10-01T22:43:06.088Z,97168.97
2022-10-01T22:46:17.851Z,97179.63
2022-10-01T22:49:06.237Z,97192.94
2022-10-01T22:51:59.008Z,97171.00
2022-10-01T22:54:52.054Z,97182.50
2022-10-01T22:57:44.906Z,97194.13
2022-10-01T23:00:32.001Z,97195.16
2022-10-01T23:03:21.221Z,97200.47
2022-10-01T23:06:11.682Z,97189.00
2022-10-01T23:09:18.984Z,97201.50
2022-10-01T23:12:25.907Z,97200.47
2022-10-01T23:15:15.384Z,97204.16
2022-10-01T23:18:20.859Z,97193.69
2022-10-01T23:21:33.911Z,97196.34
2022-10-01T23:24:40.830Z,97199.00
2022-10-01T23:27:36.572Z,97211.34
2022-10-01T23:30:23.424Z,97212.31
2022-10-01T23:33:21.946Z,97227.47
2022-10-01T23:36:27.332Z,97228.31
2022-10-01T23:39:19.975Z,97232.81
2022-10-01T23:42:15.743Z,97246.31
2022-10-01T23:45:05.183Z,97241.97
2022-10-01T23:47:56.897Z,97241.16
2022-10-01T23:50:58.713Z,97242.19
2022-10-01T23:53:48.060Z,97231.75
2022-10-01T23:57:01.192Z,97245.06
